Time;durP1;ratioP1;P1;durP2;ratioP2;P2;SDS_P1;SDS_P2;PMS_P1;PMS_P2;Temp;Humidity;BMP_temperature;BMP_pressure;BME280_temperature;BME280_humidity;BME280_pressure;Samples;Min_cycle;Max_cycle;Signal;HPM_P1;HPM_P2
2023/09/09 00:14:17;;;;;;;25.20;18.50;;;;;;;15.97;72.20;99108.83;436288;1261;107329;-42
2023/09/09 00:24:24;;;;;;;25.70;17.60;;;;;;;15.80;72.34;99112.35;436343;1261;99191;-42
2023/09/09 00:34:33;;;;;;;23.40;17.90;;;;;;;15.64;72.48;99103.39;435993;1253;490481;-41
2023/09/09 00:44:39;;;;;;;25.30;18.70;;;;;;;15.59;72.90;99099.41;436407;1253;99301;-43
2023/09/09 00:54:47;;;;;;;26.40;18.80;;;;;;;15.50;73.07;99097.93;436313;1248;112214;-46
2023/09/09 01:04:54;;;;;;;26.60;18.70;;;;;;;15.30;73.19;99095.14;436230;1263;107678;-41
2023/09/09 01:15:02;;;;;;;27.40;19.30;;;;;;;15.16;73.39;99096.14;436510;1254;99208;-41
2023/09/09 01:25:09;;;;;;;27.40;18.70;;;;;;;15.06;73.65;99099.85;436312;1254;108634;-42
2023/09/09 01:35:17;;;;;;;33.60;23.60;;;;;;;14.99;74.04;99095.08;437311;1247;98016;-42
2023/09/09 01:45:24;;;;;;;36.80;21.90;;;;;;;14.96;74.36;99095.73;436389;1253;111135;-43
2023/09/09 01:55:31;;;;;;;31.70;21.00;;;;;;;14.88;74.38;99089.35;436353;1253;108843;-42
2023/09/09 02:05:40;;;;;;;31.50;23.00;;;;;;;14.87;74.82;99090.97;436313;1253;98661;-42
2023/09/09 02:15:47;;;;;;;46.90;33.80;;;;;;;14.76;74.99;99090.72;436338;1252;107384;-42
2023/09/09 02:25:55;;;;;;;45.20;30.00;;;;;;;14.63;75.09;99086.80;436434;1251;99228;-42
2023/09/09 02:36:03;;;;;;;41.20;27.70;;;;;;;14.61;75.39;99092.27;436199;1253;111597;-42
2023/09/09 02:46:11;;;;;;;41.20;30.80;;;;;;;14.76;75.80;99093.39;436510;1253;107915;-43
2023/09/09 02:56:18;;;;;;;34.40;27.10;;;;;;;14.73;75.96;99092.35;436241;1248;99214;-43
2023/09/09 03:06:26;;;;;;;27.00;21.10;;;;;;;14.68;76.18;99094.83;436267;1254;106890;-42
2023/09/09 03:16:33;;;;;;;24.20;19.40;;;;;;;14.76;76.27;99102.06;436311;1261;99345;-42
2023/09/09 03:26:40;;;;;;;21.50;18.00;;;;;;;14.73;76.21;99104.41;436359;1253;111755;-43
2023/09/09 03:36:47;;;;;;;23.20;20.00;;;;;;;14.62;76.33;99105.75;436328;1261;109033;-41
2023/09/09 03:46:54;;;;;;;24.40;18.20;;;;;;;14.51;76.57;99100.74;436309;1253;99246;-42
2023/09/09 03:57:02;;;;;;;21.00;17.60;;;;;;;14.41;76.47;99098.24;436215;1254;109432;-43
2023/09/09 04:07:10;;;;;;;25.80;17.80;;;;;;;14.31;76.65;99099.23;436122;1248;99250;-41
2023/09/09 04:17:17;;;;;;;28.60;22.20;;;;;;;14.16;76.58;99096.23;436323;1253;112416;-42
2023/09/09 04:27:26;;;;;;;25.20;18.40;;;;;;;13.89;76.22;99098.64;436350;1247;108303;-43
2023/09/09 04:37:37;;;;;;;21.60;15.30;;;;;;;13.82;76.40;99107.04;436091;1254;99248;-43
2023/09/09 04:47:44;;;;;;;21.10;18.80;;;;;;;13.94;76.85;99100.05;436399;1248;107067;-42
2023/09/09 04:57:51;;;;;;;22.00;18.00;;;;;;;14.14;77.10;99107.48;436405;1248;98042;-42
2023/09/09 05:07:59;;;;;;;25.00;19.90;;;;;;;14.37;77.48;99108.63;436291;1253;110998;-42
2023/09/09 05:18:07;;;;;;;25.70;19.00;;;;;;;14.90;77.95;99114.10;436190;1253;106210;-43
2023/09/09 05:28:14;;;;;;;27.50;19.50;;;;;;;16.58;78.38;99110.30;436327;1253;97903;-42
2023/09/09 05:38:22;;;;;;;23.70;18.20;;;;;;;17.97;77.78;99112.31;435709;1251;109599;-43
2023/09/09 05:48:30;;;;;;;29.10;18.80;;;;;;;19.12;76.52;99112.18;435348;1251;99317;-41
2023/09/09 05:58:37;;;;;;;26.20;16.80;;;;;;;20.10;75.58;99116.23;435404;1263;111090;-42
2023/09/09 06:08:45;;;;;;;22.80;15.50;;;;;;;21.05;74.36;99122.80;435290;1253;108452;-43
2023/09/09 06:18:53;;;;;;;24.70;16.00;;;;;;;21.94;73.14;99131.55;435387;1251;97993;-41
2023/09/09 06:28:59;;;;;;;;;;;;;;;22.93;71.79;99141.34;435411;1254;108239;-41
2023/09/09 06:39:06;;;;;;;24.00;14.40;;;;;;;23.73;70.33;99157.06;435317;1251;101535;-41
2023/09/09 06:49:14;;;;;;;18.50;13.40;;;;;;;24.31;69.23;99162.94;435433;1251;111248;-41
2023/09/09 06:59:21;;;;;;;20.70;14.80;;;;;;;25.32;67.63;99165.50;435420;1253;108655;-42
2023/09/09 07:09:28;;;;;;;21.00;14.10;;;;;;;25.86;65.90;99166.77;435355;1250;99311;-42
2023/09/09 07:19:36;;;;;;;17.80;13.00;;;;;;;26.25;64.77;99157.38;435239;1251;108503;-42
2023/09/09 07:29:43;;;;;;;20.10;13.80;;;;;;;26.60;63.17;99169.06;435641;1249;97953;-41
2023/09/09 07:39:52;;;;;;;16.80;11.90;;;;;;;26.21;61.46;99167.71;435525;1253;111590;-42
2023/09/09 07:49:59;;;;;;;15.30;10.00;;;;;;;25.53;60.64;99168.69;435290;1250;107772;-41
2023/09/09 08:00:08;;;;;;;25.40;15.80;;;;;;;25.49;59.78;99173.04;435447;1253;98709;-42
2023/09/09 08:10:17;;;;;;;18.80;12.80;;;;;;;25.93;58.37;99167.09;435457;1254;107126;-41
2023/09/09 08:20:24;;;;;;;21.10;12.30;;;;;;;26.02;56.83;99169.59;435523;1250;99221;-41
2023/09/09 08:30:32;;;;;;;14.90;7.90;;;;;;;26.39;56.21;99170.93;435566;1250;112145;-42
2023/09/09 08:40:55;;;;;;;12.80;8.70;;;;;;;26.40;55.48;99167.66;435485;1249;109340;-42
2023/09/09 08:51:05;;;;;;;15.70;8.50;;;;;;;26.75;55.03;99155.14;435609;1253;98840;-41
2023/09/09 09:01:14;;;;;;;10.20;7.20;;;;;;;26.78;53.84;99159.13;435575;1250;107894;-42
2023/09/09 09:11:23;;;;;;;13.50;6.80;;;;;;;26.73;53.37;99158.75;435547;1251;99240;-42
2023/09/09 09:21:36;;;;;;;7.80;6.50;;;;;;;26.82;52.53;99148.08;435673;1251;109913;-42
2023/09/09 09:31:50;;;;;;;8.70;6.20;;;;;;;26.61;50.78;99145.48;435524;1249;106701;-42
2023/09/09 09:42:00;;;;;;;7.10;6.50;;;;;;;26.72;50.51;99140.75;435536;1253;98836;-42
2023/09/09 09:52:09;;;;;;;6.70;6.00;;;;;;;26.74;50.51;99137.49;435576;1249;106528;-41
2023/09/09 10:02:18;;;;;;;7.20;6.30;;;;;;;26.86;49.80;99140.92;435681;1251;98830;-41
2023/09/09 10:12:31;;;;;;;10.90;6.50;;;;;;;26.62;49.06;99133.26;435503;1253;110554;-41
2023/09/09 10:22:59;;;;;;;6.70;5.70;;;;;;;26.94;49.49;99126.33;435379;1251;108565;-42
2023/09/09 10:33:08;;;;;;;7.20;5.70;;;;;;;27.22;48.81;99121.30;435434;1253;99215;-41
2023/09/09 10:43:15;;;;;;;7.00;6.30;;;;;;;27.35;48.40;99114.63;435687;1251;108738;-42
2023/09/09 10:53:26;;;;;;;7.20;6.30;;;;;;;27.58;47.92;99111.41;435557;1249;99355;-42
2023/09/09 11:03:48;;;;;;;8.00;6.50;;;;;;;27.61;47.48;99107.65;435583;1254;110293;-41
2023/09/09 11:14:02;;;;;;;7.40;6.70;;;;;;;27.62;47.20;99103.11;435661;1250;109382;-41
2023/09/09 11:24:11;;;;;;;12.40;6.80;;;;;;;27.67;46.76;99096.02;435664;1253;99405;-41
2023/09/09 11:34:28;;;;;;;7.70;7.00;;;;;;;27.94;46.91;99094.98;435503;1253;107363;-41
2023/09/09 11:44:42;;;;;;;9.00;6.70;;;;;;;28.08;46.42;99090.81;435639;1253;99256;-42
2023/09/09 11:54:50;;;;;;;7.50;6.60;;;;;;;28.13;46.53;99081.48;435502;1253;113155;-41
2023/09/09 12:05:01;;;;;;;8.40;6.40;;;;;;;28.33;45.97;99073.20;435670;1253;107297;-40
2023/09/09 12:15:10;;;;;;;10.90;7.30;;;;;;;28.20;45.86;99070.44;435660;1253;97985;-41
2023/09/09 12:25:32;;;;;;;8.00;6.50;;;;;;;28.26;46.35;99068.82;435635;1249;108047;-41
2023/09/09 12:35:44;;;;;;;8.20;6.00;;;;;;;28.33;46.66;99060.75;435322;1253;339756;-41
2023/09/09 12:45:53;;;;;;;6.40;5.80;;;;;;;28.23;46.35;99057.88;435709;1250;111634;-42
2023/09/09 12:56:01;;;;;;;7.20;6.50;;;;;;;27.86;45.98;99058.75;435512;1249;106648;-42
2023/09/09 13:06:08;;;;;;;7.40;6.50;;;;;;;27.80;45.81;99050.38;435704;1253;97987;-40
2023/09/09 13:16:16;;;;;;;7.20;6.50;;;;;;;27.72;45.55;99047.54;435676;1250;107656;-40
2023/09/09 13:26:24;;;;;;;7.10;6.00;;;;;;;27.65;45.17;99043.70;435587;1251;99209;-39
2023/09/09 13:36:31;;;;;;;9.80;6.10;;;;;;;27.46;44.56;99038.25;435537;1253;111183;-40
2023/09/09 13:46:39;;;;;;;19.80;7.00;;;;;;;27.42;44.76;99028.39;435601;1253;108558;-41
2023/09/09 13:56:46;;;;;;;10.40;6.40;;;;;;;27.42;44.63;99026.04;435625;1252;99269;-41
2023/09/09 14:06:53;;;;;;;6.50;5.90;;;;;;;27.39;44.93;99029.58;435685;1249;109285;-40
2023/09/09 14:17:04;;;;;;;7.70;5.90;;;;;;;27.49;44.82;99028.90;435501;1250;99289;-40
2023/09/09 14:27:20;;;;;;;6.70;6.00;;;;;;;27.34;45.05;99020.64;435591;1253;112194;-42
2023/09/09 14:37:37;;;;;;;8.20;7.40;;;;;;;27.34;45.57;99011.17;435751;1253;108433;-41
2023/09/09 14:47:48;;;;;;;8.10;6.10;;;;;;;27.30;45.27;99007.92;435659;1251;98043;-40
2023/09/09 14:58:06;;;;;;;8.20;6.80;;;;;;;27.28;45.52;99003.58;435657;1251;108574;-42
2023/09/09 15:08:27;;;;;;;8.00;6.40;;;;;;;27.20;45.17;99001.13;435706;1251;99221;-41
2023/09/09 15:18:50;;;;;;;13.60;6.60;;;;;;;27.15;45.20;98993.46;435515;1249;112009;-42
2023/09/09 15:29:02;;;;;;;8.70;5.90;;;;;;;27.00;45.31;98992.17;435514;1253;108752;-41
2023/09/09 15:39:15;;;;;;;10.60;7.70;;;;;;;26.77;45.72;98986.24;435634;1250;98049;-42
2023/09/09 15:49:28;;;;;;;8.50;6.40;;;;;;;26.60;45.72;98989.04;435637;1250;108586;-42
2023/09/09 15:59:43;;;;;;;8.60;7.30;;;;;;;26.32;45.86;98995.65;435732;1251;98043;-40
2023/09/09 16:09:59;;;;;;;11.30;8.00;;;;;;;26.03;46.52;99002.17;435359;1253;112258;-41
2023/09/09 16:20:12;;;;;;;9.50;7.90;;;;;;;25.82;47.12;98995.30;435462;1253;108566;-41
2023/09/09 16:30:24;;;;;;;11.90;9.30;;;;;;;25.60;47.78;98991.73;435734;1251;97983;-43
2023/09/09 16:40:55;;;;;;;15.00;8.80;;;;;;;25.29;48.32;98992.65;435392;1249;109165;-42
2023/09/09 16:51:21;;;;;;;11.80;8.60;;;;;;;24.90;49.05;98994.00;435536;1250;99211;-41
2023/09/09 17:01:34;;;;;;;16.80;9.80;;;;;;;24.55;49.61;98992.33;435620;1251;112807;-43
2023/09/09 17:11:46;;;;;;;12.80;9.60;;;;;;;24.18;50.42;98992.14;435341;1253;108495;-41
2023/09/09 17:21:58;;;;;;;;;;;;;;;23.88;51.07;98996.54;435465;1253;98016;-42
2023/09/09 17:32:09;;;;;;;17.50;10.10;;;;;;;23.48;51.71;99007.84;435539;1253;108336;-41
2023/09/09 17:42:32;;;;;;;21.30;11.50;;;;;;;23.06;52.51;99011.48;435655;1253;99340;-42
2023/09/09 17:52:50;;;;;;;15.90;12.30;;;;;;;22.61;53.52;99021.07;435424;1249;112117;-42
2023/09/09 18:03:16;;;;;;;19.50;12.90;;;;;;;22.10;54.52;99027.37;435596;1251;108250;-42
2023/09/09 18:13:28;;;;;;;18.20;11.90;;;;;;;21.82;55.15;99030.34;435459;1253;98836;-43
2023/09/09 18:24:08;;;;;;;23.50;13.30;;;;;;;21.56;55.96;99038.21;435650;1253;109303;-40
2023/09/09 18:34:25;;;;;;;18.80;12.40;;;;;;;21.44;56.49;99044.25;435406;1249;99211;-41
2023/09/09 18:44:53;;;;;;;19.90;14.20;;;;;;;21.30;56.86;99044.54;435636;1250;112068;-42
2023/09/09 18:55:09;;;;;;;19.50;14.70;;;;;;;21.14;57.29;99049.73;435454;1251;108588;-42
2023/09/09 19:05:38;;;;;;;19.90;13.10;;;;;;;21.05;57.78;99053.16;435437;1250;99225;-41
2023/09/09 19:15:59;;;;;;;16.10;12.70;;;;;;;20.96;58.05;99050.01;435535;1253;108647;-41
2023/09/09 19:26:44;;;;;;;16.70;12.70;;;;;;;20.79;58.52;99049.02;435145;1253;99365;-40
2023/09/09 19:37:18;;;;;;;19.00;14.40;;;;;;;20.64;59.20;99056.17;435632;1249;112298;-40
2023/09/09 19:47:34;;;;;;;20.60;13.60;;;;;;;20.53;59.62;99057.24;435292;1253;108061;-42
2023/09/09 19:58:06;;;;;;;19.20;13.90;;;;;;;20.36;60.31;99058.16;435548;1253;99228;-40
2023/09/09 20:08:28;;;;;;;21.10;14.90;;;;;;;20.14;61.01;99060.21;435333;1253;108616;-40
2023/09/09 20:18:46;;;;;;;16.30;13.80;;;;;;;20.02;61.22;99064.87;435320;1253;98847;-41
2023/09/09 20:29:16;;;;;;;19.10;14.30;;;;;;;19.87;61.48;99060.59;435236;1253;112069;-41
2023/09/09 20:39:31;;;;;;;22.60;16.00;;;;;;;19.57;62.28;99058.95;435352;1253;108844;-40
2023/09/09 20:49:57;;;;;;;18.30;15.60;;;;;;;19.26;62.70;99059.96;435271;1249;99221;-40
2023/09/09 21:00:24;;;;;;;24.50;16.70;;;;;;;18.93;63.48;99055.48;435369;1253;107976;-43
2023/09/09 21:10:44;;;;;;;22.40;16.70;;;;;;;18.74;64.68;99057.86;435391;1253;99247;-42
2023/09/09 21:21:12;;;;;;;29.30;17.50;;;;;;;18.48;65.45;99047.33;435443;1250;112120;-41
2023/09/09 21:31:25;;;;;;;21.90;17.60;;;;;;;18.34;66.24;99038.73;435241;1253;108229;-42
2023/09/09 21:41:34;;;;;;;25.30;17.60;;;;;;;18.26;66.80;99034.90;435563;1253;97973;-42
2023/09/09 21:51:43;;;;;;;28.50;17.60;;;;;;;18.12;67.20;99035.06;435243;1253;108682;-42
2023/09/09 22:01:49;;;;;;;;;;;;;;;17.97;67.58;99036.35;435367;1263;99007;-42
2023/09/09 22:11:57;;;;;;;34.70;21.50;;;;;;;17.71;67.74;99034.88;435548;1253;112162;-42
2023/09/09 22:22:05;;;;;;;23.60;18.40;;;;;;;17.42;67.82;99030.16;435243;1250;107819;-43
2023/09/09 22:32:12;;;;;;;54.50;21.20;;;;;;;17.28;68.17;99031.36;435425;1253;99218;-43
2023/09/09 22:42:21;;;;;;;24.80;19.20;;;;;;;17.32;68.66;99026.84;435373;1254;108345;-42
2023/09/09 22:52:29;;;;;;;32.90;22.70;;;;;;;17.26;69.10;99023.23;435301;1257;99253;-43
2023/09/09 23:02:37;;;;;;;34.20;21.60;;;;;;;16.98;69.27;99017.70;435278;1263;111302;-40
2023/09/09 23:12:43;;;;;;;;;;;;;;;16.72;69.80;99018.74;435278;1254;107890;-42
2023/09/09 23:22:51;;;;;;;27.20;21.90;;;;;;;16.59;70.02;99014.45;435267;1250;99231;-42
2023/09/09 23:33:00;;;;;;;34.00;25.80;;;;;;;16.47;70.57;99009.34;435373;1249;108148;-42
2023/09/09 23:43:07;;;;;;;30.90;24.70;;;;;;;16.36;70.61;99001.45;435348;1253;99215;-43
2023/09/09 23:53:16;;;;;;;26.10;20.50;;;;;;;16.16;71.28;99006.02;435349;1253;111087;-42
